sensor_id;sensor_type;location;lat;lon;timestamp;pressure;altitude;pressure_sealevel;temperature;humidity
78317;BME280;67572;50.930;18.276;2024-02-23T00:00:12;96937.88;;;9.02;87.80
78317;BME280;67572;50.930;18.276;2024-02-23T00:03:16;96938.47;;;8.96;89.07
78317;BME280;67572;50.930;18.276;2024-02-23T00:06:22;96936.88;;;8.85;89.57
78317;BME280;67572;50.930;18.276;2024-02-23T00:09:37;96937.00;;;8.84;90.39
78317;BME280;67572;50.930;18.276;2024-02-23T00:12:41;96938.69;;;8.85;91.43
78317;BME280;67572;50.930;18.276;2024-02-23T00:15:47;96946.41;;;8.78;91.74
78317;BME280;67572;50.930;18.276;2024-02-23T00:18:50;96941.28;;;8.95;90.87
78317;BME280;67572;50.930;18.276;2024-02-23T00:21:54;96939.03;;;8.72;91.35
78317;BME280;67572;50.930;18.276;2024-02-23T00:24:57;96938.69;;;8.85;92.31
78317;BME280;67572;50.930;18.276;2024-02-23T00:28:00;96934.50;;;8.82;92.67
78317;BME280;67572;50.930;18.276;2024-02-23T00:31:05;96931.69;;;8.84;93.15
78317;BME280;67572;50.930;18.276;2024-02-23T00:34:08;96930.75;;;8.85;92.94
78317;BME280;67572;50.930;18.276;2024-02-23T00:37:13;96925.38;;;8.67;93.69
78317;BME280;67572;50.930;18.276;2024-02-23T00:40:17;96930.22;;;8.99;93.13
78317;BME280;67572;50.930;18.276;2024-02-23T00:43:20;96919.91;;;8.78;92.71
78317;BME280;67572;50.930;18.276;2024-02-23T00:46:25;96923.66;;;8.76;93.58
78317;BME280;67572;50.930;18.276;2024-02-23T00:49:30;96917.19;;;8.60;92.81
78317;BME280;67572;50.930;18.276;2024-02-23T00:52:34;96923.19;;;8.63;93.38
78317;BME280;67572;50.930;18.276;2024-02-23T00:55:38;96923.78;;;8.56;93.96
78317;BME280;67572;50.930;18.276;2024-02-23T00:58:41;96926.53;;;8.65;93.12
78317;BME280;67572;50.930;18.276;2024-02-23T01:01:46;96922.16;;;8.73;93.11
78317;BME280;67572;50.930;18.276;2024-02-23T01:04:50;96914.28;;;8.81;92.93
78317;BME280;67572;50.930;18.276;2024-02-23T01:07:58;96915.38;;;8.88;92.37
78317;BME280;67572;50.930;18.276;2024-02-23T01:11:02;96921.81;;;9.04;91.96
78317;BME280;67572;50.930;18.276;2024-02-23T01:14:06;96919.31;;;8.84;90.94
78317;BME280;67572;50.930;18.276;2024-02-23T01:17:11;96915.94;;;8.82;91.96
78317;BME280;67572;50.930;18.276;2024-02-23T01:20:15;96920.19;;;8.75;92.23
78317;BME280;67572;50.930;18.276;2024-02-23T01:23:19;96926.13;;;8.87;92.30
78317;BME280;67572;50.930;18.276;2024-02-23T01:26:22;96922.63;;;8.86;92.43
78317;BME280;67572;50.930;18.276;2024-02-23T01:29:26;96917.19;;;8.60;93.41
78317;BME280;67572;50.930;18.276;2024-02-23T01:32:31;96920.63;;;8.71;92.24
78317;BME280;67572;50.930;18.276;2024-02-23T01:35:35;96926.72;;;8.99;92.09
78317;BME280;67572;50.930;18.276;2024-02-23T01:38:38;96924.38;;;8.96;91.48
78317;BME280;67572;50.930;18.276;2024-02-23T01:41:46;96922.63;;;8.59;92.22
78317;BME280;67572;50.930;18.276;2024-02-23T01:44:49;96929.16;;;8.65;93.09
78317;BME280;67572;50.930;18.276;2024-02-23T01:47:54;96931.72;;;8.56;93.85
78317;BME280;67572;50.930;18.276;2024-02-23T01:50:58;96934.50;;;8.82;93.39
78317;BME280;67572;50.930;18.276;2024-02-23T01:54:01;96931.50;;;8.95;92.96
78317;BME280;67572;50.930;18.276;2024-02-23T01:57:06;96925.97;;;8.88;93.15
78317;BME280;67572;50.930;18.276;2024-02-23T02:00:30;96938.78;;;8.66;93.63
78317;BME280;67572;50.930;18.276;2024-02-23T02:03:35;96929.25;;;8.73;94.27
78317;BME280;67572;50.930;18.276;2024-02-23T02:06:42;96933.31;;;8.77;93.80
78317;BME280;67572;50.930;18.276;2024-02-23T02:09:48;96931.16;;;8.53;95.38
78317;BME280;67572;50.930;18.276;2024-02-23T02:12:54;96934.06;;;8.59;96.09
78317;BME280;67572;50.930;18.276;2024-02-23T02:16:00;96929.22;;;8.55;96.51
78317;BME280;67572;50.930;18.276;2024-02-23T02:19:05;96929.00;;;8.39;97.10
78317;BME280;67572;50.930;18.276;2024-02-23T02:22:08;96931.13;;;8.25;96.24
78317;BME280;67572;50.930;18.276;2024-02-23T02:25:14;96929.69;;;8.68;96.67
78317;BME280;67572;50.930;18.276;2024-02-23T02:28:17;96925.84;;;8.63;95.13
78317;BME280;67572;50.930;18.276;2024-02-23T02:31:21;96933.31;;;8.40;95.99
78317;BME280;67572;50.930;18.276;2024-02-23T02:34:25;96929.91;;;8.57;96.26
78317;BME280;67572;50.930;18.276;2024-02-23T02:37:31;96924.94;;;8.44;96.49
78317;BME280;67572;50.930;18.276;2024-02-23T02:40:34;96933.75;;;8.35;96.53
78317;BME280;67572;50.930;18.276;2024-02-23T02:43:38;96947.94;;;8.34;96.28
78317;BME280;67572;50.930;18.276;2024-02-23T02:46:42;96937.94;;;8.28;96.39
78317;BME280;67572;50.930;18.276;2024-02-23T02:49:48;96940.28;;;8.68;96.35
78317;BME280;67572;50.930;18.276;2024-02-23T02:52:51;96938.75;;;8.38;95.70
78317;BME280;67572;50.930;18.276;2024-02-23T02:55:56;96942.22;;;8.29;96.15
78317;BME280;67572;50.930;18.276;2024-02-23T02:58:59;96940.88;;;8.25;96.85
78317;BME280;67572;50.930;18.276;2024-02-23T03:02:03;96936.97;;;8.19;96.84
78317;BME280;67572;50.930;18.276;2024-02-23T03:05:08;96942.94;;;8.41;97.02
78317;BME280;67572;50.930;18.276;2024-02-23T03:08:12;96942.09;;;8.30;96.67
78317;BME280;67572;50.930;18.276;2024-02-23T03:11:16;96952.56;;;8.32;96.34
78317;BME280;67572;50.930;18.276;2024-02-23T03:14:19;96942.53;;;8.36;96.87
78317;BME280;67572;50.930;18.276;2024-02-23T03:17:23;96948.66;;;8.26;97.22
78317;BME280;67572;50.930;18.276;2024-02-23T03:20:29;96942.88;;;8.50;96.57
78317;BME280;67572;50.930;18.276;2024-02-23T03:23:32;96946.47;;;8.59;96.94
78317;BME280;67572;50.930;18.276;2024-02-23T03:26:36;96947.66;;;8.37;96.37
78317;BME280;67572;50.930;18.276;2024-02-23T03:29:39;96947.53;;;8.29;96.51
78317;BME280;67572;50.930;18.276;2024-02-23T03:32:42;96946.06;;;8.17;97.44
78317;BME280;67572;50.930;18.276;2024-02-23T03:35:47;96947.41;;;8.21;97.21
78317;BME280;67572;50.930;18.276;2024-02-23T03:38:51;96946.84;;;8.27;96.90
78317;BME280;67572;50.930;18.276;2024-02-23T03:41:54;96957.91;;;8.13;97.39
78317;BME280;67572;50.930;18.276;2024-02-23T03:44:58;96959.56;;;8.60;96.49
78317;BME280;67572;50.930;18.276;2024-02-23T03:48:03;96948.09;;;8.42;96.06
78317;BME280;67572;50.930;18.276;2024-02-23T03:51:09;96966.91;;;8.29;96.71
78317;BME280;67572;50.930;18.276;2024-02-23T03:54:13;96973.75;;;8.32;96.33
78317;BME280;67572;50.930;18.276;2024-02-23T03:57:16;96973.03;;;8.30;95.89
78317;BME280;67572;50.930;18.276;2024-02-23T04:00:20;96976.38;;;8.22;96.80
78317;BME280;67572;50.930;18.276;2024-02-23T04:03:25;96980.19;;;8.00;98.24
78317;BME280;67572;50.930;18.276;2024-02-23T04:06:30;96978.47;;;8.28;98.38
78317;BME280;67572;50.930;18.276;2024-02-23T04:09:34;96978.69;;;7.88;99.39
78317;BME280;67572;50.930;18.276;2024-02-23T04:12:37;96976.66;;;8.29;99.21
78317;BME280;67572;50.930;18.276;2024-02-23T04:15:41;96982.28;;;8.16;98.53
78317;BME280;67572;50.930;18.276;2024-02-23T04:18:44;96990.47;;;8.32;98.46
78317;BME280;67572;50.930;18.276;2024-02-23T04:21:49;96991.59;;;8.01;99.03
78317;BME280;67572;50.930;18.276;2024-02-23T04:24:52;96988.91;;;8.30;98.51
78317;BME280;67572;50.930;18.276;2024-02-23T04:27:55;96991.50;;;8.02;99.25
78317;BME280;67572;50.930;18.276;2024-02-23T04:30:59;96996.72;;;8.22;99.33
78317;BME280;67572;50.930;18.276;2024-02-23T04:34:02;96998.56;;;8.21;98.54
78317;BME280;67572;50.930;18.276;2024-02-23T04:37:07;97007.91;;;8.06;98.82
78317;BME280;67572;50.930;18.276;2024-02-23T04:40:11;97000.81;;;7.97;99.76
78317;BME280;67572;50.930;18.276;2024-02-23T04:43:15;97009.56;;;8.26;98.74
78317;BME280;67572;50.930;18.276;2024-02-23T04:46:18;97009.88;;;7.94;98.69
78317;BME280;67572;50.930;18.276;2024-02-23T04:49:21;97025.63;;;7.96;99.67
78317;BME280;67572;50.930;18.276;2024-02-23T04:52:26;97024.63;;;8.06;100.00
78317;BME280;67572;50.930;18.276;2024-02-23T04:55:30;97035.50;;;8.03;99.51
78317;BME280;67572;50.930;18.276;2024-02-23T04:58:34;97043.59;;;7.83;100.00
78317;BME280;67572;50.930;18.276;2024-02-23T05:01:42;97041.19;;;7.99;100.00
78317;BME280;67572;50.930;18.276;2024-02-23T05:04:46;97052.50;;;7.82;100.00
78317;BME280;67572;50.930;18.276;2024-02-23T05:07:51;97044.81;;;8.07;100.00
78317;BME280;67572;50.930;18.276;2024-02-23T05:10:54;97058.22;;;7.96;100.00
78317;BME280;67572;50.930;18.276;2024-02-23T05:13:58;97081.06;;;7.88;100.00
78317;BME280;67572;50.930;18.276;2024-02-23T05:17:02;97077.56;;;7.97;100.00
78317;BME280;67572;50.930;18.276;2024-02-23T05:20:06;97077.28;;;7.90;100.00
78317;BME280;67572;50.930;18.276;2024-02-23T05:23:14;97076.88;;;7.95;100.00
78317;BME280;67572;50.930;18.276;2024-02-23T05:26:19;97090.25;;;8.03;100.00
78317;BME280;67572;50.930;18.276;2024-02-23T05:29:22;97093.69;;;8.23;100.00
78317;BME280;67572;50.930;18.276;2024-02-23T05:32:29;97104.03;;;8.16;100.00
78317;BME280;67572;50.930;18.276;2024-02-23T05:35:32;97097.75;;;7.98;100.00
78317;BME280;67572;50.930;18.276;2024-02-23T05:38:44;97101.50;;;8.15;100.00
78317;BME280;67572;50.930;18.276;2024-02-23T05:41:48;97100.56;;;7.96;100.00
78317;BME280;67572;50.930;18.276;2024-02-23T05:44:51;97107.94;;;8.12;100.00
78317;BME280;67572;50.930;18.276;2024-02-23T05:47:55;97103.75;;;7.90;100.00
78317;BME280;67572;50.930;18.276;2024-02-23T05:50:58;97103.59;;;7.92;100.00
78317;BME280;67572;50.930;18.276;2024-02-23T05:54:03;97110.59;;;8.02;100.00
78317;BME280;67572;50.930;18.276;2024-02-23T05:57:07;97123.66;;;8.14;100.00
78317;BME280;67572;50.930;18.276;2024-02-23T06:00:11;97127.28;;;8.13;100.00
78317;BME280;67572;50.930;18.276;2024-02-23T06:03:17;97129.09;;;8.12;100.00
78317;BME280;67572;50.930;18.276;2024-02-23T06:06:21;97138.56;;;8.05;100.00
78317;BME280;67572;50.930;18.276;2024-02-23T06:09:26;97146.78;;;8.31;100.00
78317;BME280;67572;50.930;18.276;2024-02-23T06:12:32;97143.75;;;8.26;100.00
78317;BME280;67572;50.930;18.276;2024-02-23T06:15:36;97159.78;;;8.24;99.42
78317;BME280;67572;50.930;18.276;2024-02-23T06:18:40;97160.31;;;8.09;100.00
78317;BME280;67572;50.930;18.276;2024-02-23T06:21:47;97173.28;;;8.12;100.00
78317;BME280;67572;50.930;18.276;2024-02-23T06:24:52;97166.31;;;8.20;100.00
78317;BME280;67572;50.930;18.276;2024-02-23T06:27:55;97181.94;;;8.33;100.00
78317;BME280;67572;50.930;18.276;2024-02-23T06:30:59;97193.88;;;8.08;100.00
78317;BME280;67572;50.930;18.276;2024-02-23T06:34:02;97198.91;;;8.11;100.00
78317;BME280;67572;50.930;18.276;2024-02-23T06:37:06;97209.19;;;8.04;100.00
78317;BME280;67572;50.930;18.276;2024-02-23T06:40:11;97202.00;;;8.16;100.00
78317;BME280;67572;50.930;18.276;2024-02-23T06:43:14;97214.53;;;8.33;100.00
78317;BME280;67572;50.930;18.276;2024-02-23T06:46:22;97212.31;;;8.39;99.86
78317;BME280;67572;50.930;18.276;2024-02-23T06:49:25;97220.75;;;8.03;100.00
78317;BME280;67572;50.930;18.276;2024-02-23T06:52:29;97225.53;;;8.10;100.00
78317;BME280;67572;50.930;18.276;2024-02-23T06:55:34;97234.00;;;8.23;100.00
78317;BME280;67572;50.930;18.276;2024-02-23T06:58:38;97233.66;;;8.37;99.29
78317;BME280;67572;50.930;18.276;2024-02-23T07:01:48;97245.75;;;8.30;100.00
78317;BME280;67572;50.930;18.276;2024-02-23T07:04:52;97237.09;;;8.28;100.00
78317;BME280;67572;50.930;18.276;2024-02-23T07:07:58;97238.97;;;8.56;98.91
78317;BME280;67572;50.930;18.276;2024-02-23T07:11:06;97246.72;;;8.19;99.20
78317;BME280;67572;50.930;18.276;2024-02-23T07:14:09;97244.53;;;8.44;98.92
78317;BME280;67572;50.930;18.276;2024-02-23T07:17:16;97249.13;;;8.61;98.98
78317;BME280;67572;50.930;18.276;2024-02-23T07:20:21;97256.41;;;8.40;98.60
78317;BME280;67572;50.930;18.276;2024-02-23T07:23:24;97246.78;;;8.48;98.65
78317;BME280;67572;50.930;18.276;2024-02-23T07:26:30;97255.13;;;8.53;98.29
78317;BME280;67572;50.930;18.276;2024-02-23T07:29:34;97246.91;;;8.76;97.87
78317;BME280;67572;50.930;18.276;2024-02-23T07:32:37;97259.59;;;8.43;97.47
78317;BME280;67572;50.930;18.276;2024-02-23T07:35:42;97254.19;;;8.64;96.96
78317;BME280;67572;50.930;18.276;2024-02-23T07:38:46;97251.09;;;8.49;96.91
78317;BME280;67572;50.930;18.276;2024-02-23T07:41:52;97250.13;;;9.08;96.37
78317;BME280;67572;50.930;18.276;2024-02-23T07:44:56;97256.13;;;8.72;95.65
78317;BME280;67572;50.930;18.276;2024-02-23T07:48:00;97252.09;;;8.87;95.05
78317;BME280;67572;50.930;18.276;2024-02-23T07:51:05;97259.75;;;8.90;95.32
78317;BME280;67572;50.930;18.276;2024-02-23T07:54:08;97260.72;;;8.60;95.99
78317;BME280;67572;50.930;18.276;2024-02-23T07:57:13;97256.13;;;8.81;95.36
78317;BME280;67572;50.930;18.276;2024-02-23T08:00:19;97265.75;;;8.63;95.91
78317;BME280;67572;50.930;18.276;2024-02-23T08:03:26;97265.31;;;8.68;96.26
78317;BME280;67572;50.930;18.276;2024-02-23T08:06:30;97271.75;;;8.94;95.66
78317;BME280;67572;50.930;18.276;2024-02-23T08:09:33;97277.59;;;8.49;95.49
78317;BME280;67572;50.930;18.276;2024-02-23T08:12:38;97285.13;;;8.64;95.61
78317;BME280;67572;50.930;18.276;2024-02-23T08:16:03;97286.66;;;8.95;95.02
78317;BME280;67572;50.930;18.276;2024-02-23T08:19:07;97282.88;;;8.69;95.53
78317;BME280;67572;50.930;18.276;2024-02-23T08:22:12;97296.41;;;8.66;95.12
78317;BME280;67572;50.930;18.276;2024-02-23T08:25:16;97290.69;;;8.99;94.66
78317;BME280;67572;50.930;18.276;2024-02-23T08:28:21;97283.88;;;8.97;93.87
78317;BME280;67572;50.930;18.276;2024-02-23T08:31:25;97285.25;;;8.91;93.54
78317;BME280;67572;50.930;18.276;2024-02-23T08:34:29;97291.09;;;9.14;93.77
78317;BME280;67572;50.930;18.276;2024-02-23T08:37:32;97293.94;;;8.93;93.33
78317;BME280;67572;50.930;18.276;2024-02-23T08:40:36;97294.16;;;9.29;92.83
78317;BME280;67572;50.930;18.276;2024-02-23T08:43:41;97294.44;;;9.26;92.43
78317;BME280;67572;50.930;18.276;2024-02-23T08:46:44;97298.50;;;9.30;92.47
78317;BME280;67572;50.930;18.276;2024-02-23T08:49:49;97309.69;;;9.24;91.95
78317;BME280;67572;50.930;18.276;2024-02-23T08:52:53;97309.81;;;9.12;92.65
78317;BME280;67572;50.930;18.276;2024-02-23T08:55:56;97317.19;;;9.38;91.30
78317;BME280;67572;50.930;18.276;2024-02-23T08:59:02;97315.84;;;9.71;90.49
78317;BME280;67572;50.930;18.276;2024-02-23T09:02:05;97316.88;;;9.60;90.48
78317;BME280;67572;50.930;18.276;2024-02-23T09:05:09;97325.41;;;9.54;90.23
78317;BME280;67572;50.930;18.276;2024-02-23T09:08:13;97319.03;;;9.74;89.52
78317;BME280;67572;50.930;18.276;2024-02-23T09:11:18;97325.66;;;9.61;89.50
78317;BME280;67572;50.930;18.276;2024-02-23T09:14:23;97330.22;;;9.78;88.97
78317;BME280;67572;50.930;18.276;2024-02-23T09:17:27;97327.84;;;9.85;88.56
78317;BME280;67572;50.930;18.276;2024-02-23T09:20:31;97336.06;;;9.91;88.28
78317;BME280;67572;50.930;18.276;2024-02-23T09:23:35;97341.38;;;9.82;89.24
78317;BME280;67572;50.930;18.276;2024-02-23T09:26:38;97334.03;;;10.13;87.56
78317;BME280;67572;50.930;18.276;2024-02-23T09:29:44;97339.91;;;10.07;86.96
78317;BME280;67572;50.930;18.276;2024-02-23T09:32:47;97344.38;;;10.06;86.73
78317;BME280;67572;50.930;18.276;2024-02-23T09:35:51;97350.22;;;10.10;86.37
78317;BME280;67572;50.930;18.276;2024-02-23T09:38:54;97355.94;;;10.24;85.72
78317;BME280;67572;50.930;18.276;2024-02-23T09:41:58;97362.53;;;10.48;85.67
78317;BME280;67572;50.930;18.276;2024-02-23T09:45:05;97369.47;;;10.31;85.17
78317;BME280;67572;50.930;18.276;2024-02-23T09:48:10;97372.31;;;10.47;84.97
78317;BME280;67572;50.930;18.276;2024-02-23T09:51:14;97376.56;;;10.40;84.28
78317;BME280;67572;50.930;18.276;2024-02-23T09:54:18;97376.47;;;10.60;84.20
78317;BME280;67572;50.930;18.276;2024-02-23T09:57:21;97387.00;;;10.51;83.62
78317;BME280;67572;50.930;18.276;2024-02-23T10:00:27;97394.50;;;10.56;83.47
78317;BME280;67572;50.930;18.276;2024-02-23T10:03:31;97392.66;;;10.39;83.18
78317;BME280;67572;50.930;18.276;2024-02-23T10:06:35;97408.84;;;10.45;83.71
78317;BME280;67572;50.930;18.276;2024-02-23T10:09:39;97406.13;;;10.55;83.50
78317;BME280;67572;50.930;18.276;2024-02-23T10:12:42;97406.78;;;10.67;83.64
78317;BME280;67572;50.930;18.276;2024-02-23T10:15:48;97405.16;;;10.56;83.78
78317;BME280;67572;50.930;18.276;2024-02-23T10:19:11;97391.38;;;10.70;82.25
78317;BME280;67572;50.930;18.276;2024-02-23T10:22:15;97400.56;;;10.48;82.40
78317;BME280;67572;50.930;18.276;2024-02-23T10:25:18;97411.53;;;10.63;82.04
78317;BME280;67572;50.930;18.276;2024-02-23T10:28:22;97424.59;;;10.84;81.40
78317;BME280;67572;50.930;18.276;2024-02-23T10:31:27;97429.97;;;10.74;80.94
78317;BME280;67572;50.930;18.276;2024-02-23T10:34:32;97436.44;;;10.62;81.18
78317;BME280;67572;50.930;18.276;2024-02-23T10:37:38;97442.31;;;10.93;81.37
78317;BME280;67572;50.930;18.276;2024-02-23T10:40:43;97443.66;;;11.25;79.34
78317;BME280;67572;50.930;18.276;2024-02-23T10:43:47;97445.47;;;11.06;80.20
78317;BME280;67572;50.930;18.276;2024-02-23T10:46:52;97447.44;;;11.04;79.67
78317;BME280;67572;50.930;18.276;2024-02-23T10:49:58;97445.97;;;11.10;78.92
78317;BME280;67572;50.930;18.276;2024-02-23T10:53:04;97450.84;;;10.97;78.74
78317;BME280;67572;50.930;18.276;2024-02-23T10:56:10;97451.53;;;10.99;79.70
78317;BME280;67572;50.930;18.276;2024-02-23T10:59:14;97449.19;;;10.86;78.73
78317;BME280;67572;50.930;18.276;2024-02-23T11:02:23;97446.97;;;11.09;78.28
78317;BME280;67572;50.930;18.276;2024-02-23T11:05:28;97447.06;;;11.17;78.32
78317;BME280;67572;50.930;18.276;2024-02-23T11:08:32;97454.59;;;11.04;77.59
78317;BME280;67572;50.930;18.276;2024-02-23T11:11:37;97449.50;;;11.28;77.38
78317;BME280;67572;50.930;18.276;2024-02-23T11:14:44;97456.44;;;11.21;77.02
78317;BME280;67572;50.930;18.276;2024-02-23T11:17:49;97462.16;;;11.26;76.79
78317;BME280;67572;50.930;18.276;2024-02-23T11:20:54;97458.41;;;11.37;76.30
78317;BME280;67572;50.930;18.276;2024-02-23T11:24:03;97452.41;;;11.35;75.74
78317;BME280;67572;50.930;18.276;2024-02-23T11:27:13;97459.00;;;11.31;76.54
78317;BME280;67572;50.930;18.276;2024-02-23T11:30:20;97467.47;;;11.26;75.75
78317;BME280;67572;50.930;18.276;2024-02-23T11:33:28;97461.81;;;11.29;75.01
78317;BME280;67572;50.930;18.276;2024-02-23T11:36:32;97462.19;;;11.17;75.31
78317;BME280;67572;50.930;18.276;2024-02-23T11:39:37;97467.47;;;11.26;74.02
78317;BME280;67572;50.930;18.276;2024-02-23T11:42:41;97471.84;;;11.18;74.02
78317;BME280;67572;50.930;18.276;2024-02-23T11:45:46;97472.97;;;10.88;71.97
78317;BME280;67572;50.930;18.276;2024-02-23T11:48:55;97466.34;;;11.01;70.81
78317;BME280;67572;50.930;18.276;2024-02-23T11:51:59;97478.84;;;10.91;70.09
78317;BME280;67572;50.930;18.276;2024-02-23T11:55:03;97484.59;;;11.14;69.13
78317;BME280;67572;50.930;18.276;2024-02-23T11:58:08;97467.66;;;10.88;69.90
78317;BME280;67572;50.930;18.276;2024-02-23T12:01:20;97468.84;;;11.03;69.75
78317;BME280;67572;50.930;18.276;2024-02-23T12:04:26;97464.41;;;11.21;68.97
78317;BME280;67572;50.930;18.276;2024-02-23T12:07:32;97470.75;;;11.10;68.80
78317;BME280;67572;50.930;18.276;2024-02-23T12:10:37;97480.22;;;11.40;68.98
78317;BME280;67572;50.930;18.276;2024-02-23T12:13:41;97482.03;;;10.95;67.50
78317;BME280;67572;50.930;18.276;2024-02-23T12:16:45;97496.09;;;11.32;68.97
78317;BME280;67572;50.930;18.276;2024-02-23T12:19:58;97489.75;;;11.43;68.41
78317;BME280;67572;50.930;18.276;2024-02-23T12:23:04;97492.00;;;11.20;67.93
78317;BME280;67572;50.930;18.276;2024-02-23T12:26:10;97493.41;;;10.97;69.15
78317;BME280;67572;50.930;18.276;2024-02-23T12:29:16;97510.81;;;11.09;69.95
78317;BME280;67572;50.930;18.276;2024-02-23T12:32:20;97507.22;;;11.00;69.20
78317;BME280;67572;50.930;18.276;2024-02-23T12:35:27;97501.06;;;11.27;69.04
78317;BME280;67572;50.930;18.276;2024-02-23T12:38:31;97514.19;;;10.74;69.85
78317;BME280;67572;50.930;18.276;2024-02-23T12:41:34;97519.75;;;10.34;71.59
78317;BME280;67572;50.930;18.276;2024-02-23T12:44:38;97517.97;;;10.24;72.87
78317;BME280;67572;50.930;18.276;2024-02-23T12:47:42;97518.09;;;10.23;75.04
78317;BME280;67572;50.930;18.276;2024-02-23T12:50:47;97521.81;;;10.49;75.99
78317;BME280;67572;50.930;18.276;2024-02-23T12:53:51;97525.63;;;10.37;76.42
78317;BME280;67572;50.930;18.276;2024-02-23T12:56:54;97532.47;;;10.40;77.47
78317;BME280;67572;50.930;18.276;2024-02-23T12:59:59;97528.84;;;10.21;77.10
78317;BME280;67572;50.930;18.276;2024-02-23T13:03:03;97544.78;;;10.12;78.74
78317;BME280;67572;50.930;18.276;2024-02-23T13:06:08;97549.84;;;10.05;79.37
78317;BME280;67572;50.930;18.276;2024-02-23T13:09:13;97553.75;;;9.91;80.05
78317;BME280;67572;50.930;18.276;2024-02-23T13:12:16;97554.59;;;9.92;80.92
78317;BME280;67572;50.930;18.276;2024-02-23T13:15:20;97555.97;;;9.77;81.61
78317;BME280;67572;50.930;18.276;2024-02-23T13:18:27;97550.66;;;9.96;80.67
78317;BME280;67572;50.930;18.276;2024-02-23T13:21:33;97555.25;;;10.04;79.92
78317;BME280;67572;50.930;18.276;2024-02-23T13:24:36;97558.91;;;10.22;79.89
78317;BME280;67572;50.930;18.276;2024-02-23T13:27:42;97570.38;;;9.93;81.46
78317;BME280;67572;50.930;18.276;2024-02-23T13:30:45;97568.13;;;10.18;82.05
78317;BME280;67572;50.930;18.276;2024-02-23T13:33:49;97561.53;;;10.12;81.59
78317;BME280;67572;50.930;18.276;2024-02-23T13:36:54;97559.63;;;10.24;81.31
78317;BME280;67572;50.930;18.276;2024-02-23T13:39:57;97570.94;;;10.26;80.50
78317;BME280;67572;50.930;18.276;2024-02-23T13:43:01;97568.00;;;10.39;79.95
78317;BME280;67572;50.930;18.276;2024-02-23T13:46:04;97569.81;;;10.38;80.29
78317;BME280;67572;50.930;18.276;2024-02-23T13:49:08;97575.22;;;10.56;80.11
78317;BME280;67572;50.930;18.276;2024-02-23T13:52:15;97581.00;;;10.51;80.59
78317;BME280;67572;50.930;18.276;2024-02-23T13:55:18;97581.41;;;10.47;80.92
78317;BME280;67572;50.930;18.276;2024-02-23T13:58:23;97574.56;;;10.44;81.06
78317;BME280;67572;50.930;18.276;2024-02-23T14:01:26;97582.81;;;10.32;81.35
78317;BME280;67572;50.930;18.276;2024-02-23T14:04:30;97589.13;;;10.31;82.14
78317;BME280;67572;50.930;18.276;2024-02-23T14:07:37;97592.16;;;10.55;81.59
78317;BME280;67572;50.930;18.276;2024-02-23T14:10:41;97591.91;;;10.39;81.11
78317;BME280;67572;50.930;18.276;2024-02-23T14:13:45;97590.09;;;10.30;81.55
78317;BME280;67572;50.930;18.276;2024-02-23T14:16:53;97593.72;;;10.09;82.17
78317;BME280;67572;50.930;18.276;2024-02-23T14:19:56;97595.13;;;10.23;82.01
78317;BME280;67572;50.930;18.276;2024-02-23T14:23:01;97592.63;;;10.31;81.28
78317;BME280;67572;50.930;18.276;2024-02-23T14:26:05;97597.09;;;10.31;81.25
78317;BME280;67572;50.930;18.276;2024-02-23T14:29:09;97605.88;;;10.50;81.45
78317;BME280;67572;50.930;18.276;2024-02-23T14:32:15;97603.34;;;10.10;82.94
78317;BME280;67572;50.930;18.276;2024-02-23T14:35:19;97595.00;;;10.24;82.83
78317;BME280;67572;50.930;18.276;2024-02-23T14:38:25;97595.28;;;10.31;82.20
78317;BME280;67572;50.930;18.276;2024-02-23T14:41:28;97605.63;;;10.24;82.20
78317;BME280;67572;50.930;18.276;2024-02-23T14:44:32;97605.31;;;10.27;82.01
78317;BME280;67572;50.930;18.276;2024-02-23T14:47:35;97606.31;;;10.26;81.99
78317;BME280;67572;50.930;18.276;2024-02-23T14:50:47;97607.13;;;9.98;82.20
78317;BME280;67572;50.930;18.276;2024-02-23T14:53:52;97603.06;;;9.94;84.32
78317;BME280;67572;50.930;18.276;2024-02-23T14:56:55;97598.28;;;9.68;82.84
78317;BME280;67572;50.930;18.276;2024-02-23T14:59:59;97603.16;;;9.54;82.74
78317;BME280;67572;50.930;18.276;2024-02-23T15:03:03;97607.25;;;9.67;82.59
78317;BME280;67572;50.930;18.276;2024-02-23T15:06:07;97601.72;;;9.50;83.52
78317;BME280;67572;50.930;18.276;2024-02-23T15:09:14;97606.34;;;9.57;82.28
78317;BME280;67572;50.930;18.276;2024-02-23T15:12:17;97609.59;;;9.70;82.02
78317;BME280;67572;50.930;18.276;2024-02-23T15:15:21;97602.56;;;9.40;82.13
78317;BME280;67572;50.930;18.276;2024-02-23T15:18:25;97607.56;;;9.43;80.90
78317;BME280;67572;50.930;18.276;2024-02-23T15:21:28;97607.19;;;9.48;80.48
78317;BME280;67572;50.930;18.276;2024-02-23T15:24:33;97611.66;;;9.48;79.85
78317;BME280;67572;50.930;18.276;2024-02-23T15:27:37;97610.97;;;9.55;79.66
78317;BME280;67572;50.930;18.276;2024-02-23T15:30:41;97617.41;;;9.53;79.42
78317;BME280;67572;50.930;18.276;2024-02-23T15:33:44;97620.06;;;9.53;79.66
78317;BME280;67572;50.930;18.276;2024-02-23T15:36:49;97632.63;;;9.60;80.34
78317;BME280;67572;50.930;18.276;2024-02-23T15:39:54;97638.44;;;9.44;80.62
78317;BME280;67572;50.930;18.276;2024-02-23T15:42:58;97640.22;;;9.34;80.27
78317;BME280;67572;50.930;18.276;2024-02-23T15:46:05;97644.31;;;9.48;80.34
78317;BME280;67572;50.930;18.276;2024-02-23T15:49:08;97658.63;;;9.26;81.37
78317;BME280;67572;50.930;18.276;2024-02-23T15:52:32;97649.72;;;9.37;81.36
78317;BME280;67572;50.930;18.276;2024-02-23T15:55:37;97650.13;;;9.32;81.44
78317;BME280;67572;50.930;18.276;2024-02-23T15:58:41;97647.00;;;9.58;80.38
78317;BME280;67572;50.930;18.276;2024-02-23T16:01:44;97650.31;;;9.40;81.26
78317;BME280;67572;50.930;18.276;2024-02-23T16:04:51;97661.06;;;9.49;80.81
78317;BME280;67572;50.930;18.276;2024-02-23T16:07:55;97650.13;;;9.82;79.71
78317;BME280;67572;50.930;18.276;2024-02-23T16:10:59;97645.97;;;9.99;79.37